createdAt,value
2022-09-07T00:00:25.383Z,99.9
2022-09-07T00:02:31.690Z,99.9
2022-09-07T00:04:40.757Z,99.9
2022-09-07T00:06:46.959Z,99.9
2022-09-07T00:08:53.242Z,99.9
2022-09-07T00:10:59.488Z,99.9
2022-09-07T00:13:05.780Z,99.9
2022-09-07T00:15:12.058Z,99.9
2022-09-07T00:17:18.296Z,99.9
2022-09-07T00:19:27.324Z,99.9
2022-09-07T00:21:33.578Z,99.9
2022-09-07T00:23:41.415Z,99.9
2022-09-07T00:25:50.087Z,99.9
2022-09-07T00:27:53.949Z,99.9
2022-09-07T00:30:00.203Z,99.9
2022-09-07T00:32:06.456Z,99.9
2022-09-07T00:34:15.489Z,99.9
2022-09-07T00:36:21.781Z,99.9
2022-09-07T00:38:28.128Z,99.9
2022-09-07T00:43:00.317Z,99.9
2022-09-07T00:45:06.635Z,99.9
2022-09-07T00:47:15.629Z,99.9
2022-09-07T00:49:21.934Z,99.9
2022-09-07T00:51:28.211Z,99.9
2022-09-07T00:57:47.030Z,99.9
2022-09-07T00:59:53.305Z,99.9
2022-09-07T01:02:02.465Z,99.9
2022-09-07T01:04:08.643Z,99.9
2022-09-07T01:06:15.040Z,99.9
2022-09-07T01:08:21.303Z,99.9
2022-09-07T01:10:27.610Z,99.9
2022-09-07T01:12:33.993Z,99.9
2022-09-07T01:14:40.296Z,99.9
2022-09-07T01:16:49.321Z,99.9
2022-09-07T01:18:55.611Z,99.9
2022-09-07T01:25:14.466Z,99.9
2022-09-07T01:27:20.785Z,99.9
2022-09-07T01:29:27.071Z,99.9
2022-09-07T01:31:36.174Z,99.9
2022-09-07T01:33:42.392Z,99.9
2022-09-07T01:35:48.670Z,99.9
2022-09-07T01:36:53.179Z,99.9
2022-09-07T01:38:59.473Z,99.9
2022-09-07T01:41:05.775Z,99.9
2022-09-07T01:43:12.175Z,99.9
2022-09-07T01:45:21.305Z,99.9
2022-09-07T01:47:27.596Z,99.9
2022-09-07T01:49:33.980Z,99.9
2022-09-07T01:51:40.267Z,99.9
2022-09-07T01:53:46.560Z,99.9
2022-09-07T01:55:52.864Z,99.9
2022-09-07T01:57:59.250Z,99.9
2022-09-07T02:04:20.962Z,99.9
2022-09-07T02:12:46.345Z,99.9
2022-09-07T02:14:55.462Z,99.9
2022-09-07T02:17:01.748Z,99.9
2022-09-07T02:19:08.038Z,99.9
2022-09-07T02:21:14.416Z,99.9
2022-09-07T02:23:20.696Z,99.9
2022-09-07T02:25:26.944Z,99.9
2022-09-07T02:27:33.267Z,99.9
2022-09-07T02:29:42.473Z,99.9
2022-09-07T02:31:48.831Z,99.9
2022-09-07T02:33:55.021Z,99.9
2022-09-07T02:34:59.542Z,99.9
2022-09-07T02:37:05.844Z,99.9
2022-09-07T02:39:12.112Z,99.9
2022-09-07T02:41:18.432Z,99.9
2022-09-07T02:47:40.026Z,99.9
2022-09-07T02:49:46.284Z,99.9
2022-09-07T02:51:52.603Z,99.9
2022-09-07T02:53:58.982Z,99.9
2022-09-07T02:56:05.260Z,99.9
2022-09-07T03:02:27.055Z,99.9
2022-09-07T03:04:33.289Z,99.9
2022-09-07T03:10:52.168Z,99.9
2022-09-07T03:17:14.011Z,99.9
2022-09-07T03:19:20.285Z,99.9
2022-09-07T03:21:26.585Z,99.9
2022-09-07T03:23:32.892Z,99.9
2022-09-07T03:25:41.113Z,99.9
2022-09-07T03:29:54.616Z,99.9
2022-09-07T03:32:00.868Z,99.9
2022-09-07T03:33:05.418Z,99.9
2022-09-07T03:35:12.555Z,99.9
2022-09-07T03:37:18.068Z,99.9
2022-09-07T03:39:24.373Z,99.9
2022-09-07T03:43:39.712Z,99.9
2022-09-07T03:47:52.520Z,99.9
2022-09-07T03:49:58.797Z,99.9
2022-09-07T03:52:05.101Z,99.9
2022-09-07T04:00:33.332Z,99.9
2022-09-07T04:04:46.114Z,99.9
2022-09-07T04:06:52.414Z,99.9
2022-09-07T04:08:58.799Z,99.9
2022-09-07T04:13:14.439Z,99.9
2022-09-07T04:17:27.239Z,99.9
2022-09-07T04:19:33.611Z,99.9
2022-09-07T04:21:39.931Z,99.9
2022-09-07T04:23:46.308Z,99.9
2022-09-07T04:25:55.430Z,99.9
2022-09-07T04:28:01.724Z,99.9
2022-09-07T04:30:08.001Z,99.9
2022-09-07T04:32:31.990Z,99.9
2022-09-07T04:36:44.679Z,99.9
2022-09-07T04:38:53.818Z,99.9
2022-09-07T04:41:00.219Z,99.9
2022-09-07T04:43:06.585Z,99.9
2022-09-07T04:45:12.878Z,99.9
2022-09-07T04:47:19.178Z,99.9
2022-09-07T04:49:25.459Z,99.9
2022-09-07T04:57:53.443Z,99.9
2022-09-07T04:59:59.754Z,99.9
2022-09-07T05:02:06.046Z,99.9
2022-09-07T05:04:12.289Z,99.9
2022-09-07T05:06:18.567Z,99.9
2022-09-07T05:08:27.609Z,99.9
2022-09-07T05:10:33.901Z,99.9
2022-09-07T05:12:40.305Z,99.9
2022-09-07T05:14:46.583Z,99.9
2022-09-07T05:28:31.858Z,99.9
2022-09-07T05:32:44.115Z,99.9
2022-09-07T05:34:52.839Z,99.9
2022-09-07T05:36:59.413Z,99.9
2022-09-07T05:39:05.707Z,99.9
2022-09-07T05:43:18.269Z,99.9
2022-09-07T05:45:24.536Z,99.9
2022-09-07T05:51:46.177Z,99.9
2022-09-07T05:53:52.427Z,99.9
2022-09-07T05:58:05.002Z,99.9
2022-09-07T06:04:23.911Z,99.9
2022-09-07T06:06:32.952Z,99.9
2022-09-07T06:08:39.233Z,99.9
2022-09-07T06:10:45.604Z,99.9
2022-09-07T06:12:51.794Z,99.9
2022-09-07T06:17:04.385Z,99.9
2022-09-07T06:21:19.674Z,99.9
2022-09-07T06:23:25.945Z,99.9
2022-09-07T06:25:32.733Z,99.9
2022-09-07T06:26:38.292Z,99.9
2022-09-07T06:28:46.751Z,99.9
2022-09-07T06:30:50.823Z,99.9
2022-09-07T06:32:57.097Z,99.9
2022-09-07T06:35:06.103Z,99.9
2022-09-07T06:37:12.441Z,99.9
2022-09-07T06:39:18.684Z,99.9
2022-09-07T06:43:31.320Z,99.9
2022-09-07T06:45:37.563Z,99.9
2022-09-07T06:47:43.795Z,99.9
2022-09-07T06:49:52.831Z,99.9
2022-09-07T06:51:59.113Z,99.9
2022-09-07T06:56:11.685Z,99.9
2022-09-07T06:58:17.947Z,99.9
2022-09-07T07:00:24.387Z,99.9
2022-09-07T07:02:30.546Z,99.9
2022-09-07T07:04:41.036Z,99.9
2022-09-07T07:06:45.848Z,99.9
2022-09-07T07:10:58.418Z,99.9
2022-09-07T07:13:04.714Z,99.9
2022-09-07T07:15:10.993Z,99.9
2022-09-07T07:19:26.259Z,99.9
2022-09-07T07:21:49.185Z,99.9
2022-09-07T07:23:38.804Z,99.9
2022-09-07T07:26:49.587Z,99.9
2022-09-07T07:31:05.999Z,99.9
2022-09-07T07:33:11.183Z,99.9
2022-09-07T07:35:17.440Z,99.9
2022-09-07T07:42:00.236Z,99.9
2022-09-07T07:43:42.495Z,99.9
2022-09-07T07:45:56.035Z,99.9
2022-09-07T07:47:57.791Z,99.9
2022-09-07T07:50:33.381Z,99.9
2022-09-07T07:54:16.606Z,99.9
2022-09-07T07:56:22.868Z,99.9
2022-09-07T07:58:29.096Z,99.9
2022-09-07T08:00:53.060Z,99.9
2022-09-07T08:02:44.412Z,99.9
2022-09-07T08:04:50.610Z,99.9
2022-09-07T08:06:56.861Z,99.9
2022-09-07T08:11:09.352Z,99.9
2022-09-07T08:15:21.832Z,99.9
2022-09-07T08:17:30.839Z,99.9
2022-09-07T08:19:37.078Z,99.9
2022-09-07T08:21:43.332Z,99.9
2022-09-07T08:24:03.102Z,99.9
2022-09-07T08:26:09.328Z,99.9
2022-09-07T08:30:24.597Z,99.9
2022-09-07T08:34:37.074Z,99.9
2022-09-07T08:36:43.322Z,99.9
2022-09-07T08:38:49.574Z,99.9
2022-09-07T08:40:55.816Z,99.9
2022-09-07T08:43:02.062Z,99.9
2022-09-07T08:45:11.065Z,99.9
2022-09-07T08:47:17.305Z,99.9
2022-09-07T08:49:23.549Z,99.9
2022-09-07T08:51:29.769Z,99.9
2022-09-07T08:53:36.008Z,99.9
2022-09-07T08:55:42.243Z,99.9
2022-09-07T08:57:48.531Z,99.9
2022-09-07T08:59:57.480Z,99.9
2022-09-07T09:02:36.534Z,99.9
2022-09-07T09:06:11.705Z,99.9
2022-09-07T09:06:16.410Z,99.9
2022-09-07T09:08:22.415Z,99.9
2022-09-07T09:10:28.638Z,99.9
2022-09-07T09:12:37.497Z,99.9
2022-09-07T09:14:43.871Z,99.9
2022-09-07T09:16:50.086Z,99.9
2022-09-07T09:18:56.312Z,99.9
2022-09-07T09:20:00.775Z,99.9
2022-09-07T09:22:07.018Z,99.9
2022-09-07T09:24:13.222Z,99.9
2022-09-07T09:26:19.446Z,99.9
2022-09-07T09:28:31.749Z,99.9
2022-09-07T09:32:40.862Z,99.9
2022-09-07T09:34:47.067Z,99.9
2022-09-07T09:36:53.269Z,99.9
2022-09-07T09:38:59.481Z,99.9
2022-09-07T09:41:05.663Z,99.9
2022-09-07T09:47:30.731Z,99.9
2022-09-07T09:49:33.169Z,99.9
2022-09-07T09:55:51.537Z,99.9
2022-09-07T10:00:10.525Z,99.9
2022-09-07T10:04:20.338Z,99.9
2022-09-07T10:06:24.740Z,99.9
2022-09-07T10:08:30.870Z,99.9
2022-09-07T10:10:36.711Z,99.9
2022-09-07T10:12:45.427Z,99.9
2022-09-07T10:14:51.369Z,99.9
2022-09-07T10:16:57.322Z,99.9
2022-09-07T10:20:07.568Z,99.9
2022-09-07T10:24:19.426Z,99.9
2022-09-07T10:26:28.023Z,98.9
2022-09-07T10:30:39.885Z,98.6
2022-09-07T10:32:45.705Z,98.6
2022-09-07T10:34:51.581Z,98.7
2022-09-07T10:36:57.472Z,99
2022-09-07T10:39:03.350Z,99.3
2022-09-07T10:41:11.884Z,98.2
2022-09-07T10:43:21.530Z,98.4
2022-09-07T10:45:23.609Z,98.5
2022-09-07T10:47:29.551Z,97.9
2022-09-07T10:49:35.360Z,97.9
2022-09-07T10:51:41.184Z,97.6
2022-09-07T10:53:47.234Z,97.1
2022-09-07T10:55:55.618Z,93
2022-09-07T10:58:01.469Z,92.6
2022-09-07T11:00:08.128Z,90.7
2022-09-07T11:02:13.236Z,90.7
2022-09-07T11:04:19.023Z,91.8
2022-09-07T11:06:24.876Z,91.9
2022-09-07T11:10:39.263Z,92.6
2022-09-07T11:12:45.135Z,92.2
2022-09-07T11:14:50.963Z,83.2
2022-09-07T11:15:55.274Z,83.7
2022-09-07T11:18:01.069Z,84.5
2022-09-07T11:20:06.891Z,88
2022-09-07T11:22:12.745Z,90
2022-09-07T11:24:21.298Z,91.1
2022-09-07T11:26:27.142Z,91.3
2022-09-07T11:28:33.124Z,91.1
2022-09-07T11:30:38.944Z,91.2
2022-09-07T11:32:44.754Z,91.4
2022-09-07T11:34:52.212Z,90.2
2022-09-07T11:36:56.492Z,89.8
2022-09-07T11:39:05.067Z,88.8
2022-09-07T11:41:10.984Z,88.9
2022-09-07T11:43:16.865Z,89.3
2022-09-07T11:45:22.795Z,89.9
2022-09-07T11:47:28.728Z,90.5
2022-09-07T11:51:40.603Z,87.2
2022-09-07T11:53:49.215Z,79.8
2022-09-07T11:58:01.006Z,81
2022-09-07T12:00:06.963Z,83.2
2022-09-07T12:02:12.872Z,83.3
2022-09-07T12:04:18.835Z,83.6
2022-09-07T12:06:24.640Z,82.4
2022-09-07T12:08:33.244Z,82.7
2022-09-07T12:10:39.135Z,83.3
2022-09-07T12:12:45.035Z,87
2022-09-07T12:17:10.388Z,89.3
2022-09-07T12:19:16.319Z,89.3
2022-09-07T12:21:24.914Z,82.9
2022-09-07T12:23:30.867Z,81.3
2022-09-07T12:25:36.769Z,80.2
2022-09-07T12:27:42.628Z,80.3
2022-09-07T12:29:50.053Z,79.6
2022-09-07T12:31:58.834Z,79.8
2022-09-07T12:34:01.800Z,81.6
2022-09-07T12:36:10.432Z,85.9
2022-09-07T12:40:22.264Z,86
2022-09-07T12:42:37.277Z,86
2022-09-07T12:46:40.055Z,83.4
2022-09-07T12:50:54.673Z,85.1
2022-09-07T12:53:00.626Z,84.6
2022-09-07T12:55:26.489Z,80.2
2022-09-07T12:57:31.018Z,76.4
2022-09-07T12:59:20.270Z,72.2
2022-09-07T13:01:24.595Z,72.1
2022-09-07T13:03:51.793Z,72
2022-09-07T13:05:39.393Z,73.2
2022-09-07T13:07:45.031Z,74.9
2022-09-07T13:09:50.974Z,76.6
2022-09-07T13:13:01.341Z,73.2
2022-09-07T13:15:09.648Z,71.1
2022-09-07T13:17:16.631Z,68.7
2022-09-07T13:19:21.822Z,68.3
2022-09-07T13:21:28.774Z,68.2
2022-09-07T13:25:39.582Z,65.7
2022-09-07T13:27:45.502Z,64.7
2022-09-07T13:29:51.410Z,63.1
2022-09-07T13:31:57.282Z,61.7
2022-09-07T13:34:05.857Z,64
2022-09-07T13:36:11.758Z,64
2022-09-07T13:40:23.550Z,63
2022-09-07T13:42:29.452Z,62.7
2022-09-07T13:46:41.220Z,60.1
2022-09-07T13:48:49.831Z,59.2
2022-09-07T13:53:01.564Z,58
2022-09-07T13:55:07.472Z,58.6
2022-09-07T13:57:13.358Z,63.7
2022-09-07T13:59:19.206Z,60.3
2022-09-07T14:01:25.154Z,59.4
2022-09-07T14:03:33.706Z,58.7
2022-09-07T14:05:39.587Z,59
2022-09-07T14:07:45.444Z,61.1
2022-09-07T14:15:09.222Z,63.6
2022-09-07T14:19:21.970Z,63.5
2022-09-07T14:21:27.940Z,63.8
2022-09-07T14:27:45.696Z,65.5
2022-09-07T14:29:51.765Z,57.8
2022-09-07T14:32:00.481Z,55.8
2022-09-07T14:34:06.715Z,54.1
2022-09-07T14:36:36.317Z,54.1
2022-09-07T14:39:04.095Z,54.1
2022-09-07T14:40:24.249Z,55.6
2022-09-07T14:42:30.208Z,55.3
2022-09-07T14:44:36.166Z,53.3
2022-09-07T14:46:44.761Z,53
2022-09-07T14:48:50.701Z,53.8
2022-09-07T14:55:08.515Z,53.9
2022-09-07T14:57:14.474Z,54.3
2022-09-07T14:59:20.664Z,54.5
2022-09-07T15:03:34.965Z,52.7
2022-09-07T15:05:40.947Z,52.5
2022-09-07T15:07:01.238Z,52.3
2022-09-07T15:08:51.150Z,54.6
2022-09-07T15:13:02.992Z,55.8
2022-09-07T15:15:11.617Z,55
2022-09-07T15:17:43.528Z,54.4
2022-09-07T15:19:23.476Z,54.1
2022-09-07T15:21:29.524Z,54.3
2022-09-07T15:23:35.431Z,54.1
2022-09-07T15:25:46.585Z,54.4
2022-09-07T15:27:47.325Z,55.6
2022-09-07T15:29:55.954Z,58.2
2022-09-07T15:32:04.694Z,59.4
2022-09-07T15:36:13.981Z,60.3
2022-09-07T15:40:26.045Z,61.1
2022-09-07T15:43:00.155Z,61.1
2022-09-07T15:48:52.778Z,55
2022-09-07T15:50:59.226Z,54.7
2022-09-07T15:53:05.152Z,55.2
2022-09-07T15:55:10.934Z,56.4
2022-09-07T15:59:25.902Z,57.6
2022-09-07T16:01:53.070Z,57.7
2022-09-07T16:03:38.214Z,57.9
2022-09-07T16:08:26.530Z,57.1
2022-09-07T16:10:13.724Z,56.9
2022-09-07T16:14:28.697Z,57.4
2022-09-07T16:20:47.355Z,59
2022-09-07T16:23:14.925Z,59.3
2022-09-07T16:24:59.196Z,59.4
2022-09-07T16:27:08.422Z,59.6
2022-09-07T16:29:14.189Z,59.6
2022-09-07T16:33:34.403Z,59.6
2022-09-07T16:35:32.524Z,60
2022-09-07T16:38:43.778Z,60.3
2022-09-07T16:39:44.852Z,60.5
2022-09-07T16:41:53.660Z,61.1
2022-09-07T16:43:59.772Z,61.2
2022-09-07T16:46:05.882Z,61.4
2022-09-07T16:48:12.707Z,61.8
2022-09-07T16:50:18.132Z,62.9
2022-09-07T16:52:24.247Z,63.7
2022-09-07T16:54:32.386Z,63.9
2022-09-07T16:56:39.447Z,64.3
2022-09-07T16:58:45.454Z,64.4
2022-09-07T17:00:51.618Z,64.5
2022-09-07T17:01:56.039Z,64.6
2022-09-07T17:04:05.502Z,65
2022-09-07T17:06:08.320Z,65.5
2022-09-07T17:08:14.454Z,66.8
2022-09-07T17:10:23.376Z,67.4
2022-09-07T17:14:35.663Z,68.7
2022-09-07T17:20:54.120Z,70.6
2022-09-07T17:23:00.948Z,73.3
2022-09-07T17:25:09.222Z,75.5
2022-09-07T17:27:15.356Z,76
2022-09-07T17:29:21.534Z,82
2022-09-07T17:33:33.877Z,81.8
2022-09-07T17:37:46.217Z,88.4
2022-09-07T17:39:55.189Z,89.6
2022-09-07T17:42:01.343Z,90.1
2022-09-07T17:44:07.485Z,91.4
2022-09-07T17:46:13.733Z,94.9
2022-09-07T17:48:19.821Z,94.5
2022-09-07T17:50:26.026Z,94.7
2022-09-07T17:54:42.032Z,98.1
2022-09-07T17:56:47.335Z,98.4
2022-09-07T17:58:53.812Z,99.1
2022-09-07T18:00:12.621Z,99.6
2022-09-07T18:02:04.237Z,99.6
2022-09-07T18:04:10.432Z,99.9
2022-09-07T18:06:16.622Z,99.9
2022-09-07T18:08:25.571Z,99.9
2022-09-07T18:11:45.040Z,99.9
2022-09-07T18:12:37.984Z,99.9
2022-09-07T18:16:50.473Z,99.9
2022-09-07T18:21:03.363Z,99.9
2022-09-07T18:25:18.020Z,99.9
2022-09-07T18:27:24.227Z,99.9
2022-09-07T18:31:36.662Z,99.9
2022-09-07T18:40:05.778Z,99.9
2022-09-07T18:46:25.314Z,99.9
2022-09-07T18:50:36.787Z,99.9
2022-09-07T18:52:53.638Z,99.9
2022-09-07T18:54:51.958Z,99.9
2022-09-07T18:56:58.408Z,99.9
2022-09-07T18:58:02.636Z,99.9
2022-09-07T19:00:08.858Z,99.9
2022-09-07T19:02:15.183Z,99.9
2022-09-07T19:04:21.633Z,99.9
2022-09-07T19:06:30.250Z,99.9
2022-09-07T19:08:36.458Z,99.9
2022-09-07T19:10:42.688Z,99.9
2022-09-07T19:12:48.896Z,99.9
2022-09-07T19:14:55.130Z,99.9
2022-09-07T19:17:01.336Z,99.9
2022-09-07T19:19:07.577Z,99.9
2022-09-07T19:25:28.973Z,99.9
2022-09-07T19:27:35.198Z,99.9
2022-09-07T19:29:41.444Z,99.9
2022-09-07T19:31:47.752Z,99.9
2022-09-07T19:33:53.952Z,99.9
2022-09-07T19:36:02.949Z,99.9
2022-09-07T19:38:09.158Z,99.9
2022-09-07T19:40:19.118Z,99.9
2022-09-07T19:42:21.627Z,99.9
2022-09-07T19:44:27.880Z,99.9
2022-09-07T19:46:34.146Z,99.9
2022-09-07T19:48:40.351Z,99.9
2022-09-07T19:50:49.384Z,99.9
2022-09-07T19:52:55.613Z,99.9
2022-09-07T19:55:02.010Z,99.9
2022-09-07T19:57:27.610Z,99.9
2022-09-07T19:59:33.830Z,99.9
2022-09-07T20:10:07.900Z,99.9
2022-09-07T20:12:14.124Z,99.9
2022-09-07T20:14:20.408Z,99.9
2022-09-07T20:16:26.736Z,99.9
2022-09-07T20:18:35.686Z,99.9
2022-09-07T20:20:41.960Z,99.9
2022-09-07T20:22:48.213Z,99.9
2022-09-07T20:24:54.496Z,99.9
2022-09-07T20:27:00.760Z,99.9
2022-09-07T20:29:27.739Z,99.9
2022-09-07T20:31:13.401Z,99.9
2022-09-07T20:33:22.347Z,99.9
2022-09-07T20:35:28.663Z,99.9
2022-09-07T20:37:34.966Z,99.9
2022-09-07T20:39:41.251Z,99.9
2022-09-07T20:41:47.505Z,99.9
2022-09-07T20:43:53.784Z,99.9
2022-09-07T20:48:09.080Z,99.9
2022-09-07T20:50:15.795Z,99.9
2022-09-07T20:52:21.619Z,99.9
2022-09-07T20:57:38.687Z,99.9
2022-09-07T20:59:44.955Z,99.9
2022-09-07T21:01:54.105Z,99.9
2022-09-07T21:06:06.534Z,99.9
2022-09-07T21:08:12.792Z,99.9
2022-09-07T21:10:19.085Z,99.9
2022-09-07T21:12:25.348Z,99.9
2022-09-07T21:14:31.649Z,99.9
2022-09-07T21:16:40.806Z,99.9
2022-09-07T21:18:46.953Z,99.9
2022-09-07T21:21:17.438Z,99.9
2022-09-07T21:22:59.529Z,99.9
2022-09-07T21:25:05.813Z,99.9
2022-09-07T21:27:12.103Z,99.9
2022-09-07T21:33:33.870Z,99.9
2022-09-07T21:35:40.033Z,99.9
2022-09-07T21:39:52.610Z,99.9
2022-09-07T21:41:58.892Z,99.9
2022-09-07T21:44:05.264Z,99.9
2022-09-07T21:55:44.273Z,99.9
2022-09-07T21:57:50.556Z,99.9
2022-09-07T21:59:59.590Z,99.9
2022-09-07T22:02:05.975Z,99.9
2022-09-07T22:04:12.255Z,99.9
2022-09-07T22:06:18.578Z,99.9
2022-09-07T22:08:24.968Z,99.9
2022-09-07T22:10:31.346Z,99.9
2022-09-07T22:12:37.656Z,99.9
2022-09-07T22:14:46.751Z,99.9
2022-09-07T22:16:53.038Z,99.9
2022-09-07T22:21:05.627Z,99.9
2022-09-07T22:25:18.403Z,99.9
2022-09-07T22:27:24.783Z,99.9
2022-09-07T22:29:33.806Z,99.9
2022-09-07T22:31:40.212Z,99.9
2022-09-07T22:33:46.385Z,99.9
2022-09-07T22:35:52.800Z,99.9
2022-09-07T22:37:58.979Z,99.9
2022-09-07T22:40:05.432Z,99.9
2022-09-07T22:42:11.665Z,99.9
2022-09-07T22:44:20.743Z,99.9
2022-09-07T22:46:27.083Z,99.9
2022-09-07T22:48:33.394Z,99.9
2022-09-07T22:49:37.916Z,99.9
2022-09-07T22:51:44.216Z,99.9
2022-09-07T22:53:50.531Z,99.9
2022-09-07T22:55:56.893Z,99.9
2022-09-07T22:58:05.930Z,99.9
2022-09-07T23:00:12.214Z,99.9
2022-09-07T23:02:18.503Z,99.9
2022-09-07T23:04:29.705Z,99.9
2022-09-07T23:08:37.457Z,99.9
2022-09-07T23:10:44.804Z,99.9
2022-09-07T23:12:54.650Z,99.9
2022-09-07T23:15:00.250Z,99.9
2022-09-07T23:17:06.515Z,99.9
2022-09-07T23:19:12.755Z,99.9
2022-09-07T23:27:40.765Z,99.9
2022-09-07T23:29:47.057Z,99.9
2022-09-07T23:31:53.403Z,99.9
2022-09-07T23:33:59.594Z,99.9
2022-09-07T23:36:05.906Z,99.9
2022-09-07T23:38:12.186Z,99.9
2022-09-07T23:40:18.573Z,99.9
2022-09-07T23:42:27.613Z,99.9
2022-09-07T23:44:33.890Z,99.9
2022-09-07T23:46:40.314Z,99.9
2022-09-07T23:49:04.329Z,99.9
2022-09-07T23:51:10.595Z,99.9
2022-09-07T23:53:16.871Z,99.9
2022-09-07T23:55:25.911Z,99.9
2022-09-07T23:57:32.188Z,99.9
2022-09-07T23:59:38.454Z,99.9
